sensor_id;sensor_type;location;lat;lon;timestamp;P1;durP1;ratioP1;P2;durP2;ratioP2
29162;SDS011;20331;53.144;8.208;2022-07-31T00:06:45;2.30;;;1.90;;
29162;SDS011;20331;53.144;8.208;2022-07-31T00:17:06;2.17;;;1.73;;
29162;SDS011;20331;53.144;8.208;2022-07-31T00:27:28;5.30;;;1.50;;
29162;SDS011;20331;53.144;8.208;2022-07-31T00:37:49;3.08;;;1.42;;
29162;SDS011;20331;53.144;8.208;2022-07-31T00:48:22;1.88;;;1.40;;
29162;SDS011;20331;53.144;8.208;2022-07-31T00:58:44;3.33;;;1.50;;
29162;SDS011;20331;53.144;8.208;2022-07-31T01:09:05;2.70;;;1.23;;
29162;SDS011;20331;53.144;8.208;2022-07-31T01:19:28;4.15;;;1.50;;
29162;SDS011;20331;53.144;8.208;2022-07-31T01:30:00;2.03;;;1.50;;
29162;SDS011;20331;53.144;8.208;2022-07-31T01:40:28;2.28;;;1.40;;
29162;SDS011;20331;53.144;8.208;2022-07-31T01:50:55;3.97;;;1.70;;
29162;SDS011;20331;53.144;8.208;2022-07-31T02:01:19;3.97;;;1.60;;
29162;SDS011;20331;53.144;8.208;2022-07-31T02:11:47;2.30;;;1.60;;
29162;SDS011;20331;53.144;8.208;2022-07-31T02:22:15;4.85;;;1.58;;
29162;SDS011;20331;53.144;8.208;2022-07-31T02:32:36;2.63;;;1.60;;
29162;SDS011;20331;53.144;8.208;2022-07-31T02:42:59;3.08;;;1.65;;
29162;SDS011;20331;53.144;8.208;2022-07-31T02:53:23;3.03;;;1.60;;
29162;SDS011;20331;53.144;8.208;2022-07-31T03:03:44;2.33;;;1.52;;
29162;SDS011;20331;53.144;8.208;2022-07-31T03:14:06;1.70;;;1.40;;
29162;SDS011;20331;53.144;8.208;2022-07-31T03:24:30;3.97;;;1.52;;
29162;SDS011;20331;53.144;8.208;2022-07-31T03:34:53;4.18;;;1.73;;
29162;SDS011;20331;53.144;8.208;2022-07-31T03:45:17;4.43;;;1.77;;
29162;SDS011;20331;53.144;8.208;2022-07-31T03:55:41;3.50;;;1.40;;
29162;SDS011;20331;53.144;8.208;2022-07-31T04:06:04;2.75;;;1.70;;
29162;SDS011;20331;53.144;8.208;2022-07-31T04:16:25;3.72;;;1.80;;
29162;SDS011;20331;53.144;8.208;2022-07-31T04:26:47;5.90;;;2.03;;
29162;SDS011;20331;53.144;8.208;2022-07-31T04:37:10;5.20;;;2.20;;
29162;SDS011;20331;53.144;8.208;2022-07-31T04:47:32;4.50;;;2.30;;
29162;SDS011;20331;53.144;8.208;2022-07-31T04:57:53;5.50;;;2.67;;
29162;SDS011;20331;53.144;8.208;2022-07-31T05:08:15;5.97;;;2.72;;
29162;SDS011;20331;53.144;8.208;2022-07-31T05:18:36;3.15;;;2.13;;
29162;SDS011;20331;53.144;8.208;2022-07-31T05:28:58;4.88;;;2.25;;
29162;SDS011;20331;53.144;8.208;2022-07-31T05:39:20;3.10;;;2.35;;
29162;SDS011;20331;53.144;8.208;2022-07-31T05:49:41;3.97;;;2.67;;
29162;SDS011;20331;53.144;8.208;2022-07-31T06:00:03;3.88;;;2.47;;
29162;SDS011;20331;53.144;8.208;2022-07-31T06:10:26;4.32;;;2.42;;
29162;SDS011;20331;53.144;8.208;2022-07-31T06:20:48;4.57;;;2.10;;
29162;SDS011;20331;53.144;8.208;2022-07-31T06:31:16;3.67;;;2.05;;
29162;SDS011;20331;53.144;8.208;2022-07-31T06:41:41;5.07;;;2.25;;
29162;SDS011;20331;53.144;8.208;2022-07-31T06:52:09;4.38;;;2.03;;
29162;SDS011;20331;53.144;8.208;2022-07-31T07:02:31;8.52;;;2.10;;
29162;SDS011;20331;53.144;8.208;2022-07-31T07:12:52;4.15;;;2.25;;
29162;SDS011;20331;53.144;8.208;2022-07-31T07:23:14;3.75;;;1.90;;
29162;SDS011;20331;53.144;8.208;2022-07-31T07:33:36;5.60;;;2.10;;
29162;SDS011;20331;53.144;8.208;2022-07-31T07:44:02;4.78;;;1.70;;
29162;SDS011;20331;53.144;8.208;2022-07-31T07:54:25;4.82;;;2.10;;
29162;SDS011;20331;53.144;8.208;2022-07-31T08:04:50;3.45;;;1.80;;
29162;SDS011;20331;53.144;8.208;2022-07-31T08:15:12;3.10;;;2.00;;
29162;SDS011;20331;53.144;8.208;2022-07-31T08:25:33;8.25;;;1.88;;
29162;SDS011;20331;53.144;8.208;2022-07-31T08:35:55;4.15;;;1.77;;
29162;SDS011;20331;53.144;8.208;2022-07-31T08:46:19;5.65;;;1.80;;
29162;SDS011;20331;53.144;8.208;2022-07-31T08:56:42;7.75;;;2.20;;
29162;SDS011;20331;53.144;8.208;2022-07-31T09:07:04;5.43;;;1.63;;
29162;SDS011;20331;53.144;8.208;2022-07-31T09:17:44;3.42;;;1.90;;
29162;SDS011;20331;53.144;8.208;2022-07-31T09:28:14;4.15;;;1.85;;
29162;SDS011;20331;53.144;8.208;2022-07-31T09:38:40;7.20;;;1.88;;
29162;SDS011;20331;53.144;8.208;2022-07-31T09:49:03;3.17;;;2.00;;
29162;SDS011;20331;53.144;8.208;2022-07-31T09:59:25;5.93;;;2.03;;
29162;SDS011;20331;53.144;8.208;2022-07-31T10:09:47;4.88;;;2.00;;
29162;SDS011;20331;53.144;8.208;2022-07-31T10:20:10;3.85;;;2.20;;
29162;SDS011;20331;53.144;8.208;2022-07-31T10:30:37;7.20;;;2.08;;
29162;SDS011;20331;53.144;8.208;2022-07-31T10:41:09;3.80;;;2.15;;
29162;SDS011;20331;53.144;8.208;2022-07-31T10:51:47;5.30;;;2.25;;
29162;SDS011;20331;53.144;8.208;2022-07-31T11:02:10;5.38;;;1.95;;
29162;SDS011;20331;53.144;8.208;2022-07-31T11:12:32;3.08;;;2.00;;
29162;SDS011;20331;53.144;8.208;2022-07-31T11:22:57;5.13;;;2.50;;
29162;SDS011;20331;53.144;8.208;2022-07-31T11:33:29;6.03;;;3.33;;
29162;SDS011;20331;53.144;8.208;2022-07-31T11:44:03;8.43;;;3.63;;
29162;SDS011;20331;53.144;8.208;2022-07-31T11:54:25;8.57;;;4.53;;
29162;SDS011;20331;53.144;8.208;2022-07-31T12:04:46;4.90;;;3.88;;
29162;SDS011;20331;53.144;8.208;2022-07-31T12:15:16;5.82;;;2.40;;
29162;SDS011;20331;53.144;8.208;2022-07-31T12:25:39;5.10;;;2.50;;
29162;SDS011;20331;53.144;8.208;2022-07-31T12:36:09;5.65;;;3.17;;
29162;SDS011;20331;53.144;8.208;2022-07-31T12:46:33;6.00;;;3.60;;
29162;SDS011;20331;53.144;8.208;2022-07-31T12:56:56;6.57;;;3.40;;
29162;SDS011;20331;53.144;8.208;2022-07-31T13:07:18;8.00;;;3.85;;
29162;SDS011;20331;53.144;8.208;2022-07-31T13:17:40;8.32;;;4.78;;
29162;SDS011;20331;53.144;8.208;2022-07-31T13:28:10;5.25;;;4.75;;
29162;SDS011;20331;53.144;8.208;2022-07-31T13:38:32;9.95;;;6.35;;
29162;SDS011;20331;53.144;8.208;2022-07-31T13:48:54;12.90;;;7.00;;
29162;SDS011;20331;53.144;8.208;2022-07-31T13:59:19;12.13;;;9.25;;
29162;SDS011;20331;53.144;8.208;2022-07-31T14:09:41;14.45;;;10.32;;
29162;SDS011;20331;53.144;8.208;2022-07-31T14:20:15;16.45;;;12.20;;
29162;SDS011;20331;53.144;8.208;2022-07-31T14:30:37;19.35;;;13.40;;
29162;SDS011;20331;53.144;8.208;2022-07-31T14:41:06;16.92;;;11.50;;
29162;SDS011;20331;53.144;8.208;2022-07-31T14:51:28;12.98;;;9.88;;
29162;SDS011;20331;53.144;8.208;2022-07-31T15:01:49;15.05;;;10.98;;
29162;SDS011;20331;53.144;8.208;2022-07-31T15:12:11;15.52;;;11.38;;
29162;SDS011;20331;53.144;8.208;2022-07-31T15:22:36;16.85;;;11.90;;
29162;SDS011;20331;53.144;8.208;2022-07-31T15:32:58;15.00;;;12.88;;
29162;SDS011;20331;53.144;8.208;2022-07-31T15:43:22;19.35;;;12.35;;
29162;SDS011;20331;53.144;8.208;2022-07-31T15:53:43;14.10;;;11.80;;
29162;SDS011;20331;53.144;8.208;2022-07-31T16:04:05;15.32;;;11.88;;
29162;SDS011;20331;53.144;8.208;2022-07-31T16:14:37;12.13;;;9.27;;
29162;SDS011;20331;53.144;8.208;2022-07-31T16:24:58;9.93;;;8.30;;
29162;SDS011;20331;53.144;8.208;2022-07-31T16:35:20;10.60;;;8.65;;
29162;SDS011;20331;53.144;8.208;2022-07-31T16:45:42;11.45;;;8.98;;
29162;SDS011;20331;53.144;8.208;2022-07-31T16:56:04;9.63;;;8.63;;
29162;SDS011;20331;53.144;8.208;2022-07-31T17:06:26;12.20;;;9.50;;
29162;SDS011;20331;53.144;8.208;2022-07-31T17:16:57;10.88;;;9.00;;
29162;SDS011;20331;53.144;8.208;2022-07-31T17:27:20;15.18;;;9.98;;
29162;SDS011;20331;53.144;8.208;2022-07-31T17:37:43;12.40;;;10.13;;
29162;SDS011;20331;53.144;8.208;2022-07-31T17:48:05;12.48;;;10.35;;
29162;SDS011;20331;53.144;8.208;2022-07-31T17:58:27;13.88;;;11.25;;
29162;SDS011;20331;53.144;8.208;2022-07-31T18:08:49;12.68;;;10.43;;
29162;SDS011;20331;53.144;8.208;2022-07-31T18:19:11;14.55;;;10.55;;
29162;SDS011;20331;53.144;8.208;2022-07-31T18:29:33;15.20;;;11.27;;
29162;SDS011;20331;53.144;8.208;2022-07-31T18:39:55;12.15;;;10.32;;
29162;SDS011;20331;53.144;8.208;2022-07-31T18:50:19;12.82;;;10.13;;
29162;SDS011;20331;53.144;8.208;2022-07-31T19:01:01;10.40;;;9.20;;
29162;SDS011;20331;53.144;8.208;2022-07-31T19:11:23;6.63;;;5.93;;
29162;SDS011;20331;53.144;8.208;2022-07-31T19:21:45;6.43;;;4.70;;
29162;SDS011;20331;53.144;8.208;2022-07-31T19:32:06;2.72;;;2.42;;
29162;SDS011;20331;53.144;8.208;2022-07-31T19:42:28;3.15;;;1.42;;
29162;SDS011;20331;53.144;8.208;2022-07-31T19:52:50;2.40;;;1.20;;
29162;SDS011;20331;53.144;8.208;2022-07-31T20:03:12;2.50;;;1.30;;
29162;SDS011;20331;53.144;8.208;2022-07-31T20:13:34;1.30;;;1.20;;
29162;SDS011;20331;53.144;8.208;2022-07-31T20:23:58;1.20;;;1.10;;
29162;SDS011;20331;53.144;8.208;2022-07-31T20:34:21;3.08;;;1.20;;
29162;SDS011;20331;53.144;8.208;2022-07-31T20:44:43;1.08;;;0.98;;
29162;SDS011;20331;53.144;8.208;2022-07-31T20:55:05;1.23;;;0.88;;
29162;SDS011;20331;53.144;8.208;2022-07-31T21:05:27;1.75;;;0.70;;
29162;SDS011;20331;53.144;8.208;2022-07-31T21:15:51;0.60;;;0.60;;
29162;SDS011;20331;53.144;8.208;2022-07-31T21:26:13;1.80;;;0.77;;
29162;SDS011;20331;53.144;8.208;2022-07-31T21:36:35;0.55;;;0.55;;
29162;SDS011;20331;53.144;8.208;2022-07-31T21:46:58;1.02;;;0.80;;
29162;SDS011;20331;53.144;8.208;2022-07-31T21:57:23;2.13;;;0.75;;
29162;SDS011;20331;53.144;8.208;2022-07-31T22:07:47;0.80;;;0.80;;
29162;SDS011;20331;53.144;8.208;2022-07-31T22:18:09;0.50;;;0.50;;
29162;SDS011;20331;53.144;8.208;2022-07-31T22:28:31;1.50;;;0.73;;
29162;SDS011;20331;53.144;8.208;2022-07-31T22:38:53;1.48;;;0.80;;
29162;SDS011;20331;53.144;8.208;2022-07-31T22:49:15;1.95;;;0.82;;
29162;SDS011;20331;53.144;8.208;2022-07-31T22:59:38;3.63;;;1.10;;
29162;SDS011;20331;53.144;8.208;2022-07-31T23:10:00;1.02;;;1.00;;
29162;SDS011;20331;53.144;8.208;2022-07-31T23:20:22;2.20;;;1.00;;
29162;SDS011;20331;53.144;8.208;2022-07-31T23:30:44;1.85;;;1.33;;
29162;SDS011;20331;53.144;8.208;2022-07-31T23:41:05;1.90;;;1.80;;
29162;SDS011;20331;53.144;8.208;2022-07-31T23:51:27;2.00;;;1.77;;
